createdAt,value
2023-01-19T00:01:31.356Z,71.10
2023-01-19T00:04:33.501Z,71.90
2023-01-19T00:07:35.632Z,71.33
2023-01-19T00:10:37.795Z,71.37
2023-01-19T00:13:40.636Z,71.27
2023-01-19T00:16:43.525Z,71.22
2023-01-19T00:23:04.915Z,71.64
2023-01-19T00:26:08.895Z,71.16
2023-01-19T00:29:29.392Z,72.08
2023-01-19T00:36:23.083Z,72.09
2023-01-19T00:39:31.258Z,72.43
2023-01-19T00:42:44.395Z,72.26
2023-01-19T00:45:58.456Z,72.37
2023-01-19T00:49:09.194Z,71.82
2023-01-19T00:52:33.036Z,71.10
2023-01-19T00:56:00.273Z,71.20
2023-01-19T00:59:16.994Z,71.71
2023-01-19T01:02:39.019Z,72.43
2023-01-19T01:05:44.016Z,71.97
2023-01-19T01:09:00.840Z,71.59
2023-01-19T01:12:03.365Z,71.64
2023-01-19T01:15:10.552Z,71.28
2023-01-19T01:18:13.039Z,73.04
2023-01-19T01:21:18.490Z,73.32
2023-01-19T01:24:21.671Z,72.57
2023-01-19T01:27:26.528Z,73.44
2023-01-19T01:30:29.424Z,73.80
2023-01-19T01:33:40.759Z,75.13
2023-01-19T01:36:44.668Z,73.63
2023-01-19T01:40:01.343Z,74.49
2023-01-19T01:43:04.268Z,74.56
2023-01-19T01:46:07.033Z,74.01
2023-01-19T01:49:16.106Z,74.63
2023-01-19T01:52:18.740Z,74.46
2023-01-19T01:55:22.842Z,75.46
2023-01-19T02:02:00.437Z,76.46
2023-01-19T02:05:07.516Z,76.44
2023-01-19T02:08:38.493Z,76.27
2023-01-19T02:11:59.760Z,76.02
2023-01-19T02:15:01.975Z,76.67
2023-01-19T02:18:04.242Z,76.15
2023-01-19T02:21:26.616Z,77.42
2023-01-19T02:24:29.311Z,76.36
2023-01-19T02:27:32.433Z,75.27
2023-01-19T02:30:35.950Z,75.34
2023-01-19T02:33:38.361Z,76.08
2023-01-19T02:36:49.150Z,75.11
2023-01-19T02:40:01.956Z,73.83
2023-01-19T02:43:05.186Z,72.62
2023-01-19T02:46:07.327Z,73.41
2023-01-19T02:49:09.549Z,74.38
2023-01-19T02:52:17.778Z,76.13
2023-01-19T02:55:22.368Z,75.09
2023-01-19T02:58:31.709Z,74.59
2023-01-19T03:02:12.906Z,75.53
2023-01-19T03:05:24.869Z,75.13
2023-01-19T03:08:52.437Z,75.26
2023-01-19T03:12:10.068Z,73.64
2023-01-19T03:15:22.727Z,73.44
2023-01-19T03:18:26.788Z,73.71
2023-01-19T03:21:29.850Z,73.26
2023-01-19T03:24:36.878Z,74.18
2023-01-19T03:27:40.946Z,73.49
2023-01-19T03:30:47.844Z,72.25
2023-01-19T03:33:51.808Z,75.31
2023-01-19T03:36:55.646Z,73.58
2023-01-19T03:39:57.872Z,72.85
2023-01-19T03:43:01.567Z,72.98
2023-01-19T03:46:05.203Z,72.47
2023-01-19T03:49:08.396Z,72.22
2023-01-19T03:52:10.687Z,71.82
2023-01-19T03:55:13.671Z,71.95
2023-01-19T03:58:15.846Z,72.57
2023-01-19T04:01:22.633Z,72.91
2023-01-19T04:04:25.516Z,72.40
2023-01-19T04:07:28.496Z,72.79
2023-01-19T04:10:30.610Z,71.02
2023-01-19T04:13:32.811Z,71.92
2023-01-19T04:16:35.217Z,72.41
2023-01-19T04:19:37.372Z,71.12
2023-01-19T04:22:39.596Z,71.65
2023-01-19T04:25:41.759Z,73.75
2023-01-19T04:28:43.964Z,73.27
2023-01-19T04:31:46.366Z,74.11
2023-01-19T04:34:48.525Z,72.43
2023-01-19T04:37:50.758Z,72.86
2023-01-19T04:40:53.434Z,72.59
2023-01-19T04:43:55.552Z,72.17
2023-01-19T04:46:57.776Z,70.87
2023-01-19T04:49:59.971Z,70.19
2023-01-19T04:53:02.560Z,70.07
2023-01-19T04:56:05.221Z,72.95
2023-01-19T04:59:07.372Z,74.72
2023-01-19T05:02:09.682Z,72.58
2023-01-19T05:05:11.975Z,72.28
2023-01-19T05:08:14.166Z,72.45
2023-01-19T05:11:16.318Z,72.52
2023-01-19T05:14:18.874Z,73.23
2023-01-19T05:17:21.061Z,72.77
2023-01-19T05:20:23.911Z,72.36
2023-01-19T05:23:26.045Z,72.25
2023-01-19T05:26:28.168Z,71.63
2023-01-19T05:29:30.286Z,72.50
2023-01-19T05:32:32.649Z,72.21
2023-01-19T05:35:36.646Z,72.26
2023-01-19T05:38:38.903Z,70.32
2023-01-19T05:41:42.078Z,69.53
2023-01-19T05:44:44.406Z,70.10
2023-01-19T05:47:46.771Z,69.89
2023-01-19T05:50:49.625Z,72.04
2023-01-19T05:53:51.913Z,70.88
2023-01-19T05:56:54.089Z,69.90
2023-01-19T05:59:56.284Z,73.04
2023-01-19T06:03:00.861Z,70.45
2023-01-19T06:06:03.798Z,70.42
2023-01-19T06:09:07.833Z,72.17
2023-01-19T06:12:10.049Z,70.22
2023-01-19T06:15:14.435Z,71.21
2023-01-19T06:18:16.567Z,71.38
2023-01-19T06:21:18.686Z,72.99
2023-01-19T06:24:20.908Z,72.67
2023-01-19T06:27:23.149Z,68.86
2023-01-19T06:30:25.370Z,70.57
2023-01-19T06:33:28.123Z,69.55
2023-01-19T06:36:30.325Z,71.11
2023-01-19T06:39:33.095Z,68.98
2023-01-19T06:42:37.847Z,71.75
2023-01-19T06:45:40.050Z,70.26
2023-01-19T06:48:42.207Z,70.05
2023-01-19T06:51:44.574Z,70.34
2023-01-19T06:54:46.999Z,71.25
2023-01-19T06:57:49.168Z,68.96
2023-01-19T07:00:51.878Z,69.35
2023-01-19T07:03:58.615Z,68.38
2023-01-19T07:07:02.337Z,69.10
2023-01-19T07:10:05.093Z,68.30
2023-01-19T07:13:13.899Z,68.96
2023-01-19T07:16:34.383Z,68.56
2023-01-19T07:19:36.868Z,67.75
2023-01-19T07:22:39.341Z,67.23
2023-01-19T07:25:46.246Z,69.45
2023-01-19T07:28:48.950Z,69.94
2023-01-19T07:31:54.357Z,70.22
2023-01-19T07:34:56.627Z,69.58
2023-01-19T07:37:59.068Z,69.11
2023-01-19T07:41:03.599Z,70.11
2023-01-19T07:44:05.732Z,69.08
2023-01-19T07:47:11.212Z,68.34
2023-01-19T07:50:13.971Z,67.01
2023-01-19T07:53:17.011Z,67.49
2023-01-19T07:56:22.836Z,69.03
2023-01-19T07:59:25.090Z,69.44
2023-01-19T08:02:27.970Z,68.37
2023-01-19T08:05:33.514Z,67.86
2023-01-19T08:08:37.543Z,69.97
2023-01-19T08:11:42.239Z,68.55
2023-01-19T08:14:44.451Z,69.93
2023-01-19T08:17:46.684Z,68.22
2023-01-19T08:20:50.937Z,69.21
2023-01-19T08:23:55.944Z,68.83
2023-01-19T08:26:59.890Z,69.23
2023-01-19T08:30:02.346Z,69.46
2023-01-19T08:33:08.026Z,68.64
2023-01-19T08:36:10.304Z,68.26
2023-01-19T08:39:13.215Z,67.73
2023-01-19T08:42:19.599Z,67.56
2023-01-19T08:45:21.767Z,68.23
2023-01-19T08:48:24.165Z,69.24
2023-01-19T08:51:26.329Z,66.92
2023-01-19T08:54:28.704Z,68.72
2023-01-19T08:57:30.966Z,68.89
2023-01-19T09:00:34.367Z,68.85
2023-01-19T09:03:43.751Z,69.56
2023-01-19T09:06:46.196Z,69.97
2023-01-19T09:09:48.333Z,70.13
2023-01-19T09:12:54.136Z,69.71
2023-01-19T09:15:57.762Z,70.51
2023-01-19T09:19:00.434Z,69.90
2023-01-19T09:22:04.922Z,70.19
2023-01-19T09:25:09.688Z,68.75
2023-01-19T09:28:14.618Z,69.09
2023-01-19T09:31:20.084Z,68.26
2023-01-19T09:34:23.153Z,68.33
2023-01-19T09:37:25.288Z,69.28
2023-01-19T09:40:28.250Z,69.02
2023-01-19T09:43:36.795Z,69.36
2023-01-19T09:46:45.306Z,68.81
2023-01-19T09:49:51.503Z,69.25
2023-01-19T09:53:31.660Z,70.16
2023-01-19T09:56:34.893Z,69.81
2023-01-19T09:59:38.726Z,70.51
2023-01-19T10:02:58.706Z,71.24
2023-01-19T10:06:06.172Z,71.14
2023-01-19T10:09:25.483Z,71.00
2023-01-19T10:12:42.947Z,72.01
2023-01-19T10:16:14.968Z,70.98
2023-01-19T10:19:21.808Z,71.82
2023-01-19T10:22:26.240Z,71.59
2023-01-19T10:25:28.760Z,71.99
2023-01-19T10:28:31.065Z,71.46
2023-01-19T10:31:36.099Z,71.74
2023-01-19T10:34:39.800Z,71.35
2023-01-19T10:37:44.801Z,71.65
2023-01-19T10:41:16.329Z,72.66
2023-01-19T10:44:26.745Z,71.25
2023-01-19T10:47:43.116Z,72.09
2023-01-19T10:50:45.865Z,70.25
2023-01-19T10:54:09.010Z,72.74
2023-01-19T10:57:17.594Z,74.89
2023-01-19T11:00:41.280Z,72.86
2023-01-19T11:03:44.571Z,73.89
2023-01-19T11:06:47.936Z,74.24
2023-01-19T11:10:12.554Z,72.73
2023-01-19T11:13:17.933Z,73.82
2023-01-19T11:16:23.166Z,74.02
2023-01-19T11:19:28.400Z,73.95
2023-01-19T11:22:33.121Z,72.78
2023-01-19T11:25:37.421Z,72.76
2023-01-19T11:28:45.057Z,72.22
2023-01-19T11:31:48.205Z,72.54
2023-01-19T11:34:50.669Z,72.40
2023-01-19T11:38:23.115Z,72.28
2023-01-19T11:41:33.633Z,72.37
2023-01-19T11:44:48.077Z,72.93
2023-01-19T11:47:52.374Z,71.41
2023-01-19T11:50:54.980Z,70.54
2023-01-19T11:54:01.696Z,71.29
2023-01-19T11:57:22.374Z,71.70
2023-01-19T12:01:21.179Z,71.24
2023-01-19T12:04:38.467Z,72.07
2023-01-19T12:07:45.204Z,72.09
2023-01-19T12:10:48.245Z,71.94
2023-01-19T12:13:58.013Z,72.41
2023-01-19T12:17:03.296Z,72.42
2023-01-19T12:20:34.693Z,72.10
2023-01-19T12:24:08.133Z,72.30
2023-01-19T12:27:19.323Z,71.86
2023-01-19T12:30:29.470Z,71.48
2023-01-19T12:34:06.713Z,70.93
2023-01-19T12:37:36.351Z,69.30
2023-01-19T12:40:42.260Z,71.83
2023-01-19T12:43:57.288Z,73.58
2023-01-19T12:47:24.085Z,73.30
2023-01-19T12:54:32.699Z,70.99
2023-01-19T12:57:41.543Z,72.83
2023-01-19T13:00:51.336Z,73.70
2023-01-19T13:04:09.122Z,72.44
2023-01-19T13:07:13.613Z,73.09
2023-01-19T13:10:53.480Z,74.71
2023-01-19T13:13:58.679Z,75.25
2023-01-19T13:17:02.175Z,73.18
2023-01-19T13:20:23.447Z,73.00
2023-01-19T13:23:49.965Z,72.15
2023-01-19T13:26:52.108Z,74.88
2023-01-19T13:29:54.244Z,74.03
2023-01-19T13:33:03.317Z,71.86
2023-01-19T13:36:16.321Z,72.80
2023-01-19T13:39:50.210Z,75.64
2023-01-19T13:42:53.534Z,73.77
2023-01-19T13:46:40.994Z,75.28
2023-01-19T13:49:46.941Z,72.47
2023-01-19T13:52:51.302Z,74.68
2023-01-19T13:56:21.775Z,78.15
2023-01-19T13:59:24.022Z,73.97
2023-01-19T14:02:26.387Z,73.06
2023-01-19T14:05:28.766Z,75.06
2023-01-19T14:08:32.862Z,74.58
2023-01-19T14:11:35.287Z,72.30
2023-01-19T14:14:37.799Z,72.97
2023-01-19T14:17:41.459Z,73.86
2023-01-19T14:21:08.877Z,74.64
2023-01-19T14:24:18.914Z,72.89
2023-01-19T14:27:24.300Z,71.25
2023-01-19T14:30:26.891Z,73.81
2023-01-19T14:33:45.379Z,71.74
2023-01-19T14:36:50.857Z,73.46
2023-01-19T14:39:55.619Z,73.57
2023-01-19T14:43:05.681Z,72.97
2023-01-19T14:46:07.912Z,71.76
2023-01-19T14:49:18.670Z,75.13
2023-01-19T14:52:25.276Z,71.24
2023-01-19T14:55:43.286Z,71.83
2023-01-19T14:58:45.454Z,72.95
2023-01-19T15:01:47.772Z,74.25
2023-01-19T15:04:53.868Z,71.75
2023-01-19T15:07:56.012Z,73.64
2023-01-19T15:10:58.739Z,71.00
2023-01-19T15:14:01.507Z,70.31
2023-01-19T15:17:03.680Z,71.18
2023-01-19T15:20:14.198Z,73.86
2023-01-19T15:23:16.359Z,72.58
2023-01-19T15:26:20.846Z,70.62
2023-01-19T15:29:25.172Z,72.39
2023-01-19T15:32:27.320Z,69.56
2023-01-19T15:35:29.527Z,70.91
2023-01-19T15:38:31.655Z,69.30
2023-01-19T15:41:33.916Z,71.81
2023-01-19T15:44:36.105Z,71.15
2023-01-19T15:47:38.582Z,72.27
2023-01-19T15:50:43.012Z,71.18
2023-01-19T15:53:45.611Z,72.08
2023-01-19T15:56:47.920Z,70.31
2023-01-19T15:59:51.336Z,71.38
2023-01-19T16:02:53.530Z,70.63
2023-01-19T16:05:55.782Z,69.56
2023-01-19T16:09:01.440Z,71.00
2023-01-19T16:12:04.729Z,69.91
2023-01-19T16:15:07.992Z,71.49
2023-01-19T16:18:10.360Z,70.56
2023-01-19T16:21:12.616Z,68.71
2023-01-19T16:24:14.745Z,70.50
2023-01-19T16:27:16.917Z,70.57
2023-01-19T16:30:19.415Z,71.19
2023-01-19T16:33:21.763Z,69.09
2023-01-19T16:36:29.377Z,70.19
2023-01-19T16:39:31.503Z,69.74
2023-01-19T16:42:33.715Z,69.04
2023-01-19T16:45:44.296Z,68.67
2023-01-19T16:48:46.468Z,70.13
2023-01-19T16:51:49.860Z,70.76
2023-01-19T16:54:54.702Z,70.19
2023-01-19T16:57:56.883Z,69.96
2023-01-19T17:00:59.455Z,69.32
2023-01-19T17:04:01.821Z,69.23
2023-01-19T17:07:03.930Z,67.36
2023-01-19T17:10:06.948Z,66.76
2023-01-19T17:13:09.101Z,67.11
2023-01-19T17:16:11.325Z,67.10
2023-01-19T17:19:16.621Z,65.92
2023-01-19T17:22:19.067Z,67.01
2023-01-19T17:25:21.236Z,68.84
2023-01-19T17:28:23.899Z,67.64
2023-01-19T17:31:26.420Z,69.03
2023-01-19T17:34:28.688Z,69.08
2023-01-19T17:37:30.855Z,68.48
2023-01-19T17:40:33.028Z,66.75
2023-01-19T17:43:35.233Z,68.28
2023-01-19T17:46:38.144Z,68.14
2023-01-19T17:49:40.345Z,68.93
2023-01-19T17:52:42.601Z,67.46
2023-01-19T17:55:44.919Z,68.37
2023-01-19T17:58:47.300Z,69.19
2023-01-19T18:01:49.591Z,69.05
2023-01-19T18:04:54.743Z,68.84
2023-01-19T18:07:56.986Z,68.87
2023-01-19T18:11:00.273Z,68.67
2023-01-19T18:14:02.816Z,68.65
2023-01-19T18:17:05.129Z,69.92
2023-01-19T18:20:07.963Z,68.62
2023-01-19T18:23:13.504Z,67.31
2023-01-19T18:26:18.658Z,65.30
2023-01-19T18:29:20.806Z,67.81
2023-01-19T18:32:23.125Z,68.56
2023-01-19T18:35:25.617Z,67.50
2023-01-19T18:38:27.927Z,67.77
2023-01-19T18:41:30.666Z,68.30
2023-01-19T18:44:32.836Z,67.86
2023-01-19T18:47:35.102Z,68.17
2023-01-19T18:50:37.863Z,67.16
2023-01-19T18:53:40.588Z,68.95
2023-01-19T18:56:42.770Z,67.38
2023-01-19T18:59:46.651Z,68.38
2023-01-19T19:02:48.773Z,67.20
2023-01-19T19:05:50.931Z,68.29
2023-01-19T19:08:54.836Z,68.17
2023-01-19T19:11:57.127Z,66.88
2023-01-19T19:14:59.238Z,68.07
2023-01-19T19:18:01.378Z,67.37
2023-01-19T19:21:08.615Z,67.33
2023-01-19T19:24:13.610Z,67.67
2023-01-19T19:27:17.025Z,65.69
2023-01-19T19:30:20.714Z,66.65
2023-01-19T19:33:22.888Z,68.97
2023-01-19T19:36:26.528Z,68.85
2023-01-19T19:39:29.103Z,69.27
2023-01-19T19:42:31.389Z,66.72
2023-01-19T19:45:33.566Z,69.78
2023-01-19T19:48:38.876Z,68.35
2023-01-19T19:51:41.941Z,70.05
2023-01-19T19:54:45.125Z,69.43
2023-01-19T19:57:47.594Z,68.12
2023-01-19T20:00:50.088Z,67.83
2023-01-19T20:03:52.414Z,66.59
2023-01-19T20:06:54.553Z,66.62
2023-01-19T20:09:56.740Z,66.81
2023-01-19T20:12:58.921Z,66.52
2023-01-19T20:16:03.153Z,68.76
2023-01-19T20:19:05.541Z,65.54
2023-01-19T20:22:07.697Z,65.73
2023-01-19T20:25:09.881Z,66.83
2023-01-19T20:28:12.018Z,65.25
2023-01-19T20:31:16.740Z,67.76
2023-01-19T20:34:21.462Z,68.70
2023-01-19T20:37:23.656Z,65.99
2023-01-19T20:40:25.873Z,66.11
2023-01-19T20:43:28.930Z,66.88
2023-01-19T20:46:31.109Z,66.91
2023-01-19T20:49:33.233Z,66.94
2023-01-19T20:52:35.894Z,68.13
2023-01-19T20:55:38.092Z,66.23
2023-01-19T20:58:40.948Z,65.69
2023-01-19T21:01:43.873Z,68.00
2023-01-19T21:04:46.164Z,67.04
2023-01-19T21:07:48.905Z,68.98
2023-01-19T21:10:57.196Z,64.99
2023-01-19T21:13:59.397Z,67.31
2023-01-19T21:17:01.546Z,66.76
2023-01-19T21:20:04.041Z,66.81
2023-01-19T21:23:06.211Z,66.53
2023-01-19T21:26:08.575Z,65.19
2023-01-19T21:29:13.362Z,66.31
2023-01-19T21:32:15.555Z,67.36
2023-01-19T21:35:17.751Z,68.18
2023-01-19T21:38:20.497Z,67.63
2023-01-19T21:41:22.702Z,66.52
2023-01-19T21:44:24.915Z,67.17
2023-01-19T21:47:27.050Z,66.71
2023-01-19T21:50:29.141Z,66.74
2023-01-19T21:53:31.406Z,66.17
2023-01-19T21:56:34.352Z,67.23
2023-01-19T21:59:36.489Z,67.44
2023-01-19T22:02:39.338Z,67.37
2023-01-19T22:05:42.101Z,68.97
2023-01-19T22:08:46.468Z,68.02
2023-01-19T22:11:48.672Z,66.96
2023-01-19T22:14:50.878Z,66.88
2023-01-19T22:17:53.073Z,67.38
2023-01-19T22:20:55.361Z,67.56
2023-01-19T22:24:01.900Z,67.84
2023-01-19T22:27:04.071Z,67.28
2023-01-19T22:30:06.929Z,67.98
2023-01-19T22:33:09.052Z,69.24
2023-01-19T22:36:12.989Z,68.51
2023-01-19T22:39:15.177Z,69.65
2023-01-19T22:42:17.306Z,68.79
2023-01-19T22:45:19.842Z,67.43
2023-01-19T22:48:22.287Z,66.08
2023-01-19T22:51:25.682Z,66.79
2023-01-19T22:54:29.848Z,66.02
2023-01-19T22:57:35.732Z,64.95
2023-01-19T23:00:37.977Z,68.78
2023-01-19T23:03:40.548Z,68.96
2023-01-19T23:06:43.046Z,68.32
2023-01-19T23:09:45.492Z,67.48
2023-01-19T23:12:48.586Z,67.23
2023-01-19T23:15:50.753Z,67.08
2023-01-19T23:18:54.808Z,64.46
2023-01-19T23:21:57.014Z,65.25
2023-01-19T23:24:59.205Z,64.80
2023-01-19T23:28:01.315Z,63.95
2023-01-19T23:31:25.176Z,63.64
2023-01-19T23:34:27.434Z,65.72
2023-01-19T23:37:29.623Z,63.92
2023-01-19T23:40:31.920Z,64.64
2023-01-19T23:43:34.660Z,63.74
2023-01-19T23:46:37.053Z,65.08
2023-01-19T23:49:40.122Z,65.50
2023-01-19T23:52:42.230Z,64.90
2023-01-19T23:55:44.333Z,64.33
2023-01-19T23:58:48.484Z,64.04
